createdAt,value
2019-04-14T00:00:57.911Z,4.60
2019-04-14T00:03:41.171Z,4.60
2019-04-14T00:06:11.316Z,4.40
2019-04-14T00:09:27.303Z,4.50
2019-04-14T00:12:03.019Z,4.40
2019-04-14T00:14:35.720Z,4.50
2019-04-14T00:17:15.084Z,4.50
2019-04-14T00:19:47.880Z,4.60
2019-04-14T00:22:20.558Z,4.60
2019-04-14T00:24:55.392Z,4.60
2019-04-14T00:27:28.084Z,4.60
2019-04-14T00:29:58.996Z,4.60
2019-04-14T00:32:37.897Z,4.60
2019-04-14T00:35:32.075Z,4.60
2019-04-14T00:38:23.883Z,4.60
2019-04-14T00:41:34.365Z,4.50
2019-04-14T01:04:40.532Z,4.50
2019-04-14T01:07:30.508Z,4.50
2019-04-14T01:10:04.116Z,4.50
2019-04-14T01:12:36.598Z,4.60
2019-04-14T01:15:13.703Z,4.50
2019-04-14T01:17:43.916Z,4.50
2019-04-14T01:20:21.014Z,4.50
2019-04-14T01:22:51.482Z,4.40
2019-04-14T01:25:22.269Z,4.40
2019-04-14T01:27:55.959Z,4.40
2019-04-14T01:30:26.289Z,4.40
2019-04-14T01:33:01.107Z,4.40
2019-04-14T01:35:35.961Z,4.30
2019-04-14T01:38:06.021Z,4.30
2019-04-14T01:40:40.156Z,4.30
2019-04-14T01:43:14.502Z,4.30
2019-04-14T01:45:59.588Z,4.20
2019-04-14T01:48:21.667Z,4.20
2019-04-14T01:51:20.260Z,4.20
2019-04-14T01:54:12.760Z,4.30
2019-04-14T01:56:51.387Z,4.30
2019-04-14T01:59:24.446Z,4.30
2019-04-14T02:01:54.922Z,4.30
2019-04-14T02:04:27.020Z,4.30
2019-04-14T02:06:59.534Z,4.20
2019-04-14T02:09:31.603Z,4.20
2019-04-14T02:12:40.892Z,4.10
2019-04-14T02:15:15.874Z,4.10
2019-04-14T02:17:56.596Z,4.10
2019-04-14T02:20:27.325Z,4.20
2019-04-14T02:23:01.680Z,4.20
2019-04-14T02:25:31.813Z,4.20
2019-04-14T02:28:04.787Z,4.20
2019-04-14T02:30:49.518Z,4.20
2019-04-14T02:33:44.723Z,4.20
2019-04-14T02:36:25.333Z,4.10
2019-04-14T02:43:58.106Z,4.10
2019-04-14T02:46:31.824Z,4.10
2019-04-14T02:48:59.098Z,4.00
2019-04-14T02:54:04.718Z,3.80
2019-04-14T02:56:36.841Z,3.90
2019-04-14T02:59:17.278Z,4.10
2019-04-14T03:02:10.410Z,4.10
2019-04-14T03:04:26.089Z,4.00
2019-04-14T03:07:02.601Z,4.00
2019-04-14T03:09:38.911Z,4.00
2019-04-14T03:12:01.366Z,4.00
2019-04-14T03:14:40.453Z,4.00
2019-04-14T03:17:21.908Z,3.90
2019-04-14T03:20:15.255Z,4.00
2019-04-14T03:22:55.926Z,3.90
2019-04-14T03:25:30.139Z,3.90
2019-04-14T03:31:59.774Z,3.90
2019-04-14T03:39:33.238Z,3.80
2019-04-14T03:42:00.882Z,3.80
2019-04-14T03:44:54.524Z,3.80
2019-04-14T03:47:25.486Z,3.70
2019-04-14T03:50:05.921Z,3.70
2019-04-14T03:52:37.829Z,3.60
2019-04-14T03:54:57.101Z,3.60
2019-04-14T03:57:12.940Z,3.60
2019-04-14T03:59:43.510Z,3.70
2019-04-14T04:02:24.667Z,3.70
2019-04-14T04:04:57.778Z,3.70
2019-04-14T04:07:27.913Z,3.70
2019-04-14T04:10:05.124Z,3.70
2019-04-14T04:12:42.234Z,3.60
2019-04-14T04:15:17.057Z,3.70
2019-04-14T04:18:07.015Z,3.70
2019-04-14T04:20:50.788Z,3.60
2019-04-14T04:23:31.371Z,3.70
2019-04-14T04:26:19.098Z,3.60
2019-04-14T04:29:09.047Z,3.60
2019-04-14T04:31:59.689Z,3.70
2019-04-14T04:34:49.033Z,3.70
2019-04-14T04:37:49.803Z,3.80
2019-04-14T04:40:22.782Z,3.70
2019-04-14T04:42:52.979Z,3.70
2019-04-14T04:45:26.202Z,3.70
2019-04-14T04:47:56.321Z,3.70
2019-04-14T04:50:30.274Z,3.80
2019-04-14T04:53:04.707Z,3.80
2019-04-14T04:55:37.564Z,3.80
2019-04-14T04:58:07.823Z,3.80
2019-04-14T05:00:37.973Z,3.70
2019-04-14T05:03:12.457Z,3.70
2019-04-14T05:06:09.487Z,3.70
2019-04-14T05:08:54.421Z,3.70
2019-04-14T05:11:32.080Z,3.70
2019-04-14T05:14:06.511Z,3.70
2019-04-14T05:16:36.743Z,3.70
2019-04-14T05:19:17.303Z,3.70
2019-04-14T05:21:41.265Z,3.70
2019-04-14T05:24:14.149Z,3.70
2019-04-14T05:26:44.309Z,3.70
2019-04-14T05:29:14.505Z,3.70
2019-04-14T05:31:44.713Z,3.80
2019-04-14T05:34:17.396Z,3.80
2019-04-14T05:36:50.398Z,3.80
2019-04-14T05:39:20.545Z,3.80
2019-04-14T05:42:18.935Z,4.00
2019-04-14T05:44:47.628Z,4.00
2019-04-14T05:47:17.613Z,3.90
2019-04-14T05:49:53.166Z,3.90
2019-04-14T05:52:38.248Z,4.00
2019-04-14T05:55:11.416Z,4.00
2019-04-14T05:57:41.626Z,4.10
2019-04-14T06:00:17.302Z,4.00
2019-04-14T06:02:48.398Z,4.00
2019-04-14T06:05:21.391Z,4.10
2019-04-14T06:07:55.507Z,4.10
2019-04-14T06:10:28.352Z,4.20
2019-04-14T06:13:02.018Z,4.20
2019-04-14T06:15:38.792Z,4.20
2019-04-14T06:18:08.584Z,4.20
2019-04-14T06:20:41.250Z,4.20
2019-04-14T06:23:11.143Z,4.20
2019-04-14T06:25:41.088Z,4.20
2019-04-14T06:28:11.336Z,4.30
2019-04-14T06:31:06.033Z,4.30
2019-04-14T06:33:54.868Z,4.30
2019-04-14T06:36:38.257Z,4.40
2019-04-14T06:39:20.204Z,4.50
2019-04-14T06:41:50.309Z,4.70
2019-04-14T06:44:20.149Z,4.60
2019-04-14T06:46:49.652Z,4.70
2019-04-14T06:49:18.921Z,4.70
2019-04-14T06:51:48.288Z,4.90
2019-04-14T06:54:18.670Z,4.80
2019-04-14T06:56:48.024Z,4.90
2019-04-14T06:59:17.377Z,5.10
2019-04-14T07:01:46.702Z,5.30
2019-04-14T07:04:15.979Z,5.60
2019-04-14T07:06:45.420Z,5.60
2019-04-14T07:09:14.711Z,5.60
2019-04-14T07:11:44.141Z,5.70
2019-04-14T07:14:13.412Z,5.60
2019-04-14T07:16:42.828Z,5.90
2019-04-14T07:19:12.113Z,6.00
2019-04-14T07:21:41.453Z,6.10
2019-04-14T07:24:10.805Z,6.10
2019-04-14T07:26:47.997Z,6.10
2019-04-14T07:29:17.454Z,6.20
2019-04-14T07:32:04.157Z,6.30
2019-04-14T07:35:18.923Z,6.40
2019-04-14T07:37:52.697Z,6.50
2019-04-14T07:40:47.456Z,6.70
2019-04-14T07:43:23.533Z,6.60
2019-04-14T07:46:09.971Z,6.80
2019-04-14T07:48:44.943Z,6.90
2019-04-14T07:51:28.086Z,6.80
2019-04-14T07:54:07.811Z,6.80
2019-04-14T07:56:59.834Z,6.70
2019-04-14T07:59:39.982Z,6.50
2019-04-14T08:02:28.245Z,6.50
2019-04-14T08:05:18.788Z,6.60
2019-04-14T08:07:49.272Z,6.40
2019-04-14T08:10:18.592Z,6.70
2019-04-14T08:12:47.917Z,6.80
2019-04-14T08:15:17.306Z,6.90
2019-04-14T08:17:46.694Z,6.80
2019-04-14T08:20:26.751Z,6.90
2019-04-14T08:22:48.887Z,6.90
2019-04-14T08:25:18.281Z,6.80
2019-04-14T08:27:48.140Z,6.90
2019-04-14T08:30:17.722Z,7.00
2019-04-14T08:32:47.103Z,7.00
2019-04-14T08:35:16.744Z,7.10
2019-04-14T08:37:46.113Z,7.00
2019-04-14T08:40:15.641Z,7.20
2019-04-14T08:42:58.682Z,7.10
2019-04-14T08:45:45.629Z,7.10
2019-04-14T08:48:23.013Z,7.10
2019-04-14T08:50:58.912Z,7.00
2019-04-14T08:53:38.359Z,6.90
2019-04-14T08:56:20.104Z,7.10
2019-04-14T08:59:07.599Z,7.00
2019-04-14T09:02:04.295Z,6.90
2019-04-14T09:04:39.835Z,7.10
2019-04-14T09:07:28.105Z,7.20
2019-04-14T09:10:01.977Z,7.10
2019-04-14T09:12:34.080Z,7.10
2019-04-14T09:15:03.585Z,7.10
2019-04-14T09:17:32.821Z,7.00
2019-04-14T09:20:02.249Z,7.00
2019-04-14T09:22:31.411Z,7.00
2019-04-14T09:25:00.649Z,7.00
2019-04-14T09:27:29.809Z,7.10
2019-04-14T09:29:59.089Z,7.20
2019-04-14T09:32:29.613Z,7.20
2019-04-14T09:34:58.753Z,7.30
2019-04-14T09:37:27.983Z,7.30
2019-04-14T09:39:57.250Z,7.40
2019-04-14T09:42:26.451Z,7.30
2019-04-14T09:44:55.630Z,7.30
2019-04-14T09:47:24.818Z,7.10
2019-04-14T09:49:54.084Z,7.20
2019-04-14T09:52:23.282Z,7.30
2019-04-14T09:54:52.500Z,7.40
2019-04-14T09:57:21.694Z,7.50
2019-04-14T09:59:50.873Z,7.40
2019-04-14T10:02:20.175Z,7.40
2019-04-14T10:04:49.366Z,7.90
2019-04-14T10:07:18.673Z,8.20
2019-04-14T10:09:47.880Z,8.40
2019-04-14T10:12:17.150Z,8.30
2019-04-14T10:14:46.277Z,8.30
2019-04-14T10:17:15.435Z,8.30
2019-04-14T10:19:44.724Z,8.30
2019-04-14T10:22:13.871Z,8.30
2019-04-14T10:24:43.053Z,8.00
2019-04-14T10:27:12.291Z,8.20
2019-04-14T10:29:41.612Z,8.10
2019-04-14T10:32:10.987Z,8.10
2019-04-14T10:34:40.204Z,8.00
2019-04-14T10:37:09.496Z,8.00
2019-04-14T10:39:38.701Z,7.70
2019-04-14T10:42:07.989Z,7.90
2019-04-14T10:44:37.383Z,7.90
2019-04-14T10:47:06.910Z,8.10
2019-04-14T10:49:36.148Z,8.10
2019-04-14T10:52:05.320Z,8.10
2019-04-14T10:54:34.578Z,8.10
2019-04-14T10:57:03.925Z,8.20
2019-04-14T10:59:33.128Z,8.10
2019-04-14T11:02:02.318Z,8.30
2019-04-14T11:04:31.525Z,8.20
2019-04-14T11:07:06.652Z,8.10
2019-04-14T11:09:35.908Z,8.20
2019-04-14T11:12:05.207Z,8.00
2019-04-14T11:14:34.358Z,7.90
2019-04-14T11:17:03.655Z,7.90
2019-04-14T11:19:32.860Z,7.70
2019-04-14T11:22:02.085Z,7.70
2019-04-14T11:24:31.290Z,7.60
2019-04-14T11:27:00.528Z,7.40
2019-04-14T11:29:29.764Z,7.40
2019-04-14T11:32:29.885Z,7.50
2019-04-14T11:35:30.138Z,7.60
2019-04-14T11:38:15.106Z,7.40
2019-04-14T11:40:47.251Z,7.50
2019-04-14T11:43:16.460Z,7.50
2019-04-14T11:45:45.826Z,7.60
2019-04-14T11:48:14.998Z,7.80
2019-04-14T11:50:44.211Z,7.90
2019-04-14T11:53:13.424Z,7.90
2019-04-14T11:55:42.656Z,8.10
2019-04-14T11:58:11.808Z,8.00
2019-04-14T12:01:02.644Z,8.10
2019-04-14T12:03:41.030Z,8.10
2019-04-14T12:06:20.610Z,8.20
2019-04-14T12:09:07.113Z,8.20
2019-04-14T12:11:36.317Z,8.40
2019-04-14T12:14:05.456Z,8.40
2019-04-14T12:16:34.643Z,8.20
2019-04-14T12:19:03.776Z,8.30
2019-04-14T12:21:32.972Z,8.00
2019-04-14T12:24:02.137Z,8.10
2019-04-14T12:26:31.346Z,8.40
2019-04-14T12:29:03.031Z,8.60
2019-04-14T12:31:31.561Z,8.30
2019-04-14T12:34:00.815Z,8.40
2019-04-14T12:36:30.034Z,8.30
2019-04-14T12:38:59.170Z,8.20
2019-04-14T12:41:37.691Z,8.10
2019-04-14T12:44:28.721Z,8.20
2019-04-14T12:47:19.883Z,8.40
2019-04-14T12:49:50.492Z,8.50
2019-04-14T12:52:24.808Z,8.30
2019-04-14T12:54:53.977Z,8.20
2019-04-14T12:57:48.167Z,8.30
2019-04-14T13:00:42.209Z,8.40
2019-04-14T13:03:11.374Z,8.50
2019-04-14T13:05:40.610Z,8.40
2019-04-14T13:08:09.825Z,8.40
2019-04-14T13:10:38.952Z,8.40
2019-04-14T13:13:08.135Z,8.30
2019-04-14T13:15:37.302Z,8.50
2019-04-14T13:18:06.563Z,8.50
2019-04-14T13:20:35.748Z,8.50
2019-04-14T13:23:04.980Z,8.60
2019-04-14T13:25:34.172Z,8.50
2019-04-14T13:28:03.431Z,8.50
2019-04-14T13:30:35.487Z,8.40
2019-04-14T13:33:04.814Z,8.40
2019-04-14T13:35:34.014Z,8.50
2019-04-14T13:38:03.180Z,8.40
2019-04-14T13:40:32.392Z,8.30
2019-04-14T13:43:01.647Z,8.00
2019-04-14T13:45:30.870Z,8.10
2019-04-14T13:48:00.096Z,8.20
2019-04-14T13:50:29.410Z,8.30
2019-04-14T13:52:58.670Z,8.30
2019-04-14T13:55:27.837Z,8.30
2019-04-14T13:57:57.028Z,8.30
2019-04-14T14:00:26.237Z,8.20
2019-04-14T14:02:55.481Z,8.20
2019-04-14T14:05:24.703Z,8.20
2019-04-14T14:07:53.962Z,8.40
2019-04-14T14:10:23.184Z,8.40
2019-04-14T14:12:58.401Z,8.40
2019-04-14T14:15:45.237Z,8.30
2019-04-14T14:18:51.476Z,8.30
2019-04-14T14:21:48.326Z,8.30
2019-04-14T14:24:30.007Z,8.30
2019-04-14T14:26:59.329Z,8.30
2019-04-14T14:29:28.989Z,8.30
2019-04-14T14:31:58.836Z,8.30
2019-04-14T14:34:28.029Z,8.20
2019-04-14T14:36:57.266Z,8.20
2019-04-14T14:39:26.710Z,8.30
2019-04-14T14:41:55.941Z,8.20
2019-04-14T14:44:29.224Z,8.20
2019-04-14T14:47:22.410Z,8.30
2019-04-14T14:50:02.498Z,8.30
2019-04-14T14:52:32.350Z,8.20
2019-04-14T14:55:01.619Z,8.30
2019-04-14T14:57:30.864Z,8.40
2019-04-14T15:00:00.235Z,8.40
2019-04-14T15:02:29.613Z,8.40
2019-04-14T15:04:58.782Z,8.20
2019-04-14T15:07:28.043Z,8.20
2019-04-14T15:09:57.480Z,8.30
2019-04-14T15:12:26.898Z,8.30
2019-04-14T15:14:56.032Z,8.20
2019-04-14T15:17:25.625Z,8.20
2019-04-14T15:19:54.874Z,8.20
2019-04-14T15:22:24.032Z,8.20
2019-04-14T15:24:53.273Z,8.20
2019-04-14T15:27:22.466Z,8.20
2019-04-14T15:29:51.696Z,8.00
2019-04-14T15:32:21.039Z,8.00
2019-04-14T15:34:50.275Z,7.80
2019-04-14T15:37:19.580Z,7.90
2019-04-14T15:39:48.756Z,7.80
2019-04-14T15:42:17.884Z,7.90
2019-04-14T15:44:47.105Z,7.90
2019-04-14T15:47:16.332Z,7.80
2019-04-14T15:49:45.534Z,7.80
2019-04-14T15:52:14.769Z,7.90
2019-04-14T15:54:43.994Z,7.60
2019-04-14T15:57:40.968Z,7.70
2019-04-14T16:00:44.264Z,7.80
2019-04-14T16:03:44.389Z,7.70
2019-04-14T16:06:50.501Z,7.70
2019-04-14T16:09:23.483Z,7.60
2019-04-14T16:12:11.668Z,7.70
2019-04-14T16:15:05.582Z,7.80
2019-04-14T16:17:52.426Z,7.80
2019-04-14T16:20:30.742Z,7.80
2019-04-14T16:22:59.984Z,7.80
2019-04-14T16:25:46.931Z,7.80
2019-04-14T16:28:21.111Z,7.80
2019-04-14T16:31:18.225Z,7.80
2019-04-14T16:34:04.840Z,7.70
2019-04-14T16:36:34.027Z,7.80
2019-04-14T16:39:05.232Z,7.80
2019-04-14T16:41:34.486Z,7.70
2019-04-14T16:44:04.381Z,7.70
2019-04-14T16:46:33.705Z,7.70
2019-04-14T16:49:02.945Z,7.80
2019-04-14T16:51:37.285Z,7.70
2019-04-14T16:54:23.248Z,7.70
2019-04-14T16:57:20.241Z,7.60
2019-04-14T16:59:49.379Z,7.60
2019-04-14T17:02:18.621Z,7.60
2019-04-14T17:04:47.880Z,7.60
2019-04-14T17:07:17.096Z,7.60
2019-04-14T17:09:46.305Z,7.60
2019-04-14T17:12:15.572Z,7.50
2019-04-14T17:14:50.578Z,7.50
2019-04-14T17:17:38.809Z,7.40
2019-04-14T17:20:20.583Z,7.40
2019-04-14T17:23:07.194Z,7.40
2019-04-14T17:25:42.360Z,7.40
2019-04-14T17:28:45.671Z,7.40
2019-04-14T17:31:42.466Z,7.30
2019-04-14T17:34:18.610Z,7.30
2019-04-14T17:37:07.882Z,7.30
2019-04-14T17:39:47.486Z,7.20
2019-04-14T17:42:23.975Z,7.20
2019-04-14T17:45:00.395Z,7.20
2019-04-14T17:47:46.915Z,7.10
2019-04-14T17:50:47.233Z,7.10
2019-04-14T17:53:38.083Z,7.10
2019-04-14T17:56:29.417Z,7.10
2019-04-14T17:59:14.264Z,7.00
2019-04-14T18:02:00.900Z,7.00
2019-04-14T18:04:34.429Z,7.00
2019-04-14T18:07:21.215Z,7.00
2019-04-14T18:10:15.292Z,6.90
2019-04-14T18:13:15.316Z,6.90
2019-04-14T18:16:09.563Z,6.90
2019-04-14T18:19:09.643Z,6.80
2019-04-14T18:21:39.426Z,6.70
2019-04-14T18:24:09.984Z,6.80
2019-04-14T18:26:43.010Z,6.70
2019-04-14T18:29:29.991Z,6.80
2019-04-14T18:32:21.606Z,6.70
2019-04-14T18:34:59.513Z,6.70
2019-04-14T18:37:42.843Z,6.70
2019-04-14T18:40:23.057Z,6.70
2019-04-14T18:43:11.621Z,6.60
2019-04-14T18:46:03.454Z,6.60
2019-04-14T18:48:49.737Z,6.60
2019-04-14T18:51:29.801Z,6.60
2019-04-14T18:54:04.659Z,6.50
2019-04-14T18:56:53.315Z,6.50
2019-04-14T18:59:46.957Z,6.50
2019-04-14T19:02:21.071Z,6.50
2019-04-14T19:04:51.192Z,6.50
2019-04-14T19:07:23.587Z,6.50
2019-04-14T19:09:56.679Z,6.50
2019-04-14T19:12:52.294Z,6.40
2019-04-14T19:15:45.355Z,6.40
2019-04-14T19:18:39.847Z,6.20
2019-04-14T19:21:15.384Z,6.20
2019-04-14T19:23:46.503Z,6.00
2019-04-14T19:26:15.836Z,6.10
2019-04-14T19:28:45.615Z,6.20
2019-04-14T19:31:15.480Z,6.20
2019-04-14T19:33:48.282Z,6.10
2019-04-14T19:36:18.308Z,6.10
2019-04-14T19:38:48.631Z,6.10
2019-04-14T19:41:29.558Z,6.10
2019-04-14T19:43:59.574Z,6.00
2019-04-14T19:47:07.889Z,6.10
2019-04-14T19:49:37.501Z,6.10
2019-04-14T19:52:07.415Z,6.00
2019-04-14T19:54:38.526Z,6.00
2019-04-14T19:57:11.340Z,6.10
2019-04-14T19:59:42.890Z,6.00
2019-04-14T20:02:12.571Z,6.10
2019-04-14T20:04:42.461Z,6.00
2019-04-14T20:07:12.736Z,6.00
2019-04-14T20:09:42.753Z,6.10
2019-04-14T20:12:12.229Z,6.10
2019-04-14T20:21:47.648Z,6.00
2019-04-14T20:24:21.222Z,6.00
2019-04-14T20:27:11.618Z,6.00
2019-04-14T20:29:51.596Z,5.90
2019-04-14T20:32:24.210Z,5.80
2019-04-14T20:34:54.064Z,5.80
2019-04-14T20:37:23.645Z,5.70
2019-04-14T20:40:43.477Z,5.60
2019-04-14T20:43:25.680Z,5.60
2019-04-14T20:45:58.154Z,5.60
2019-04-14T20:48:28.026Z,5.60
2019-04-14T20:50:57.883Z,5.70
2019-04-14T20:53:27.797Z,5.90
2019-04-14T20:56:24.583Z,6.00
2019-04-14T20:58:57.600Z,5.90
2019-04-14T21:01:41.679Z,5.90
2019-04-14T21:04:21.933Z,6.00
2019-04-14T21:07:12.330Z,5.90
2019-04-14T21:16:58.268Z,5.90
2019-04-14T21:20:21.122Z,5.90
2019-04-14T21:23:26.827Z,5.90
2019-04-14T21:26:21.004Z,5.90
2019-04-14T21:29:30.707Z,5.80
2019-04-14T21:32:43.026Z,5.80
2019-04-14T21:35:34.258Z,5.80
2019-04-14T21:38:21.036Z,5.80
2019-04-14T21:41:04.934Z,5.80
2019-04-14T21:43:34.256Z,5.80
2019-04-14T21:46:03.751Z,5.80
2019-04-14T21:48:33.601Z,5.80
2019-04-14T21:51:03.682Z,5.80
2019-04-14T21:54:04.661Z,5.80
2019-04-14T21:56:37.854Z,5.80
2019-04-14T21:59:16.983Z,5.80
2019-04-14T22:02:04.102Z,5.80
2019-04-14T22:04:56.190Z,5.70
2019-04-14T22:07:49.806Z,5.70
2019-04-14T22:10:26.685Z,5.70
2019-04-14T22:12:57.112Z,5.70
2019-04-14T22:15:26.928Z,5.70
2019-04-14T22:17:59.984Z,5.70
2019-04-14T22:20:47.540Z,5.60
2019-04-14T22:23:17.661Z,5.60
2019-04-14T22:25:53.312Z,5.60
2019-04-14T22:28:29.985Z,5.60
2019-04-14T22:35:36.375Z,5.60
2019-04-14T22:38:34.351Z,5.50
2019-04-14T22:44:31.935Z,5.60
2019-04-14T22:47:51.210Z,5.60
2019-04-14T22:50:46.414Z,5.60
2019-04-14T22:53:16.404Z,5.60
2019-04-14T23:06:25.129Z,5.50
2019-04-14T23:09:12.342Z,5.60
2019-04-14T23:12:02.944Z,5.60
2019-04-14T23:14:45.964Z,5.60
2019-04-14T23:17:37.466Z,5.50
2019-04-14T23:27:08.677Z,5.50
2019-04-14T23:33:03.487Z,5.50
2019-04-14T23:35:36.114Z,5.50
2019-04-14T23:38:11.313Z,5.50
2019-04-14T23:40:52.246Z,5.50
2019-04-14T23:43:23.994Z,5.50
2019-04-14T23:45:59.898Z,5.50
2019-04-14T23:51:18.876Z,5.40
2019-04-14T23:53:53.487Z,5.40
2019-04-14T23:56:23.418Z,5.40
2019-04-14T23:58:55.174Z,5.40
